This is the latest recevied weather packets stored in our database for station/object XW7RMR. If no packets are shown the sender has not sent any weather packets the latest 10 day(s).
| Time | Temp. | Humidity | Pressure | Rain* | Wind** | Luminosity | Snow |
|---|---|---|---|---|---|---|---|
| 1777624757 | 12.78° C | 86% | 1014.2 hPa | 0 mm | - | 0 W/m² | - |
| 1777624452 | 12.78° C | 85% | 1014 hPa | 0 mm | - | 0 W/m² | - |
| 1777624150 | 12.78° C | 85% | 1014.1 hPa | 0 mm | - | 0 W/m² | - |
| 1777623846 | 12.78° C | 85% | 1014.2 hPa | 0 mm | - | 0 W/m² | - |
| 1777623543 | 12.78° C | 85% | 1014.2 hPa | 0 mm | - | 0 W/m² | - |
| 1777623241 | 12.78° C | 85% | 1014 hPa | 0 mm | - | 0 W/m² | - |
| 1777622937 | 12.78° C | 84% | 1014.2 hPa | 0 mm | - | 0 W/m² | - |
| 1777622634 | 12.78° C | 84% | 1014.1 hPa | 0 mm | - | 0 W/m² | - |
| 1777622330 | 13.33° C | 83% | 1014.1 hPa | 0 mm | - | 0 W/m² | - |
| 1777622028 | 13.33° C | 82% | 1014.1 hPa | 0 mm | - | 0 W/m² | - |
| 1777621728 | 13.33° C | 82% | 1014.1 hPa | 0 mm | - | 0 W/m² | - |
| 1777621425 | 13.33° C | 82% | 1014.1 hPa | 0 mm | - | 0 W/m² | - |
| 1777621120 | 13.33° C | 81% | 1014 hPa | 0 mm | - | 0 W/m² | - |
| 1777620817 | 13.89° C | 80% | 1013.8 hPa | 0 mm | - | 0 W/m² | - |
| 1777620514 | 13.89° C | 78% | 1014.1 hPa | 0 mm | - | 0 W/m² | - |
| 1777620211 | 14.44° C | 76% | 1013.8 hPa | 0 mm | - | 0 W/m² | - |
| 1777619907 | 15° C | 74% | 1013.7 hPa | 0 mm | - | 0 W/m² | - |
| 1777619603 | 16.11° C | 70% | 1013.6 hPa | 0 mm | - | 0 W/m² | - |
| 1777619298 | 16.67° C | 60% | 1013.7 hPa | 0 mm | - | 0 W/m² | - |
| 1777618992 | 16.67° C | 60% | 1013.5 hPa | 0 mm | - | 0 W/m² | - |
| 1777618688 | 17.22° C | 59% | 1013.6 hPa | 0 mm | - | 0 W/m² | - |
| 1777618388 | 17.22° C | 57% | 1013.6 hPa | 0 mm | - | 0 W/m² | - |
| 1777618085 | 17.78° C | 56% | 1013.7 hPa | 0 mm | - | 0 W/m² | - |
| 1777617781 | 17.78° C | 57% | 1013.6 hPa | 0 mm | - | 0 W/m² | - |
| 1777617481 | 17.22° C | 57% | 1013.6 hPa | 0 mm | - | 0 W/m² | - |
* Rain latest hour (hover to see other rain measurements)
** Current wind speed in m/s (hover to see current wind gust speed)